Time;durP1;ratioP1;P1;durP2;ratioP2;P2;SDS_P1;SDS_P2;PMS_P1;PMS_P2;Temp;Humidity;BMP_temperature;BMP_pressure;BME280_temperature;BME280_humidity;BME280_pressure;Samples;Min_cycle;Max_cycle;Signal;HPM_P1;HPM_P2
2022/07/11 00:02:08;;;;;;;1.48;0.60;;;14.00;99.90;;;;;;5056796;28;20044;-85
2022/07/11 00:04:35;;;;;;;4.13;0.50;;;14.00;99.90;;;;;;5039315;28;20055;-85
2022/07/11 00:07:02;;;;;;;0.57;0.35;;;14.00;99.90;;;;;;5027488;28;20067;-86
2022/07/11 00:09:28;;;;;;;0.70;0.60;;;14.00;99.90;;;;;;5038118;28;20035;-85
2022/07/11 00:11:54;;;;;;;0.40;0.40;;;14.00;99.90;;;;;;5022678;28;20045;-85
2022/07/11 00:14:21;;;;;;;2.42;0.50;;;14.00;99.90;;;;;;5039169;28;20400;-85
2022/07/11 00:16:48;;;;;;;0.60;0.32;;;14.00;99.90;;;;;;5039428;28;20037;-84
2022/07/11 00:19:14;;;;;;;0.98;0.57;;;14.00;99.90;;;;;;5036883;28;20028;-85
2022/07/11 00:21:40;;;;;;;1.08;0.60;;;14.00;99.90;;;;;;5038901;28;20434;-86
2022/07/11 00:24:07;;;;;;;0.40;0.40;;;14.00;99.90;;;;;;5073739;28;20040;-84
2022/07/11 00:26:37;;;;;;;0.60;0.50;;;14.00;99.90;;;;;;5052555;28;20123;-85
2022/07/11 00:29:04;;;;;;;2.17;0.50;;;14.00;99.90;;;;;;5021502;28;20032;-85
2022/07/11 00:31:30;;;;;;;1.40;0.28;;;14.00;99.90;;;;;;5055296;28;20029;-85
2022/07/11 00:33:56;;;;;;;2.08;0.50;;;14.00;99.90;;;;;;5038361;28;20287;-86
2022/07/11 00:36:22;;;;;;;0.40;0.40;;;14.00;99.90;;;;;;5039028;28;20508;-85
2022/07/11 00:38:48;;;;;;;1.13;0.55;;;14.00;99.90;;;;;;5054641;28;20410;-85
2022/07/11 00:41:14;;;;;;;1.05;0.50;;;14.00;99.90;;;;;;5055308;28;20033;-85
2022/07/11 00:43:40;;;;;;;1.40;0.50;;;14.00;99.90;;;;;;5055313;28;20678;-85
2022/07/11 00:46:09;;;;;;;0.93;0.50;;;14.00;99.90;;;;;;5037839;28;20056;-86
2022/07/11 00:48:35;;;;;;;0.60;0.38;;;13.90;99.90;;;;;;5037654;28;20036;-86
2022/07/11 00:51:05;;;;;;;1.50;0.52;;;13.90;99.90;;;;;;5053980;28;20033;-84
2022/07/11 00:53:32;;;;;;;0.40;0.40;;;13.80;99.90;;;;;;5054813;28;20133;-86
2022/07/11 00:55:59;;;;;;;1.00;0.40;;;13.80;99.90;;;;;;5052156;28;20038;-84
2022/07/11 00:58:26;;;;;;;1.15;0.35;;;13.80;99.90;;;;;;5039725;28;20032;-86
2022/07/11 01:00:51;;;;;;;2.58;0.50;;;13.70;99.90;;;;;;5041296;28;20037;-85
2022/07/11 01:03:17;;;;;;;0.40;0.40;;;13.80;99.90;;;;;;5032915;28;20039;-85
2022/07/11 01:05:43;;;;;;;0.73;0.40;;;13.70;99.90;;;;;;5023484;28;20056;-85
2022/07/11 01:08:09;;;;;;;0.47;0.47;;;13.70;99.90;;;;;;5011557;28;20029;-85
2022/07/11 01:10:35;;;;;;;0.45;0.30;;;13.70;99.90;;;;;;5037895;28;20036;-85
2022/07/11 01:13:01;;;;;;;0.50;0.30;;;13.60;99.90;;;;;;5054327;28;20068;-84
2022/07/11 01:15:27;;;;;;;1.52;0.35;;;13.60;99.90;;;;;;5037653;28;20055;-85
2022/07/11 01:17:53;;;;;;;0.47;0.32;;;13.60;99.90;;;;;;5053895;28;20032;-86
2022/07/11 01:20:20;;;;;;;0.45;0.40;;;13.60;99.90;;;;;;5036549;28;20035;-85
2022/07/11 01:23:01;;;;;;;0.30;0.30;;;13.60;99.90;;;;;;5054415;28;20068;-86
2022/07/11 01:25:31;;;;;;;0.40;0.40;;;13.60;99.90;;;;;;5037919;28;20085;-85
2022/07/11 01:28:04;;;;;;;1.63;0.50;;;13.60;99.90;;;;;;5022400;28;20028;-85
2022/07/11 01:30:31;;;;;;;0.60;0.30;;;13.50;99.90;;;;;;5053858;28;20115;-86
2022/07/11 01:32:57;;;;;;;0.30;0.30;;;13.50;99.90;;;;;;5041265;28;20045;-86
2022/07/11 01:35:24;;;;;;;0.40;0.30;;;13.50;99.90;;;;;;5048871;28;20033;-85
2022/07/11 01:37:50;;;;;;;1.10;0.40;;;13.50;99.90;;;;;;5054343;28;20028;-86
2022/07/11 01:40:17;;;;;;;2.60;0.40;;;13.50;99.90;;;;;;5052971;28;20060;-85
2022/07/11 01:42:43;;;;;;;0.35;0.30;;;13.50;99.90;;;;;;5054200;28;20035;-85
2022/07/11 01:45:10;;;;;;;0.30;0.30;;;13.40;99.90;;;;;;5037615;28;20032;-85
2022/07/11 01:47:36;;;;;;;1.58;0.40;;;13.50;99.90;;;;;;5054000;28;20376;-86
2022/07/11 01:50:03;;;;;;;1.48;0.38;;;13.40;99.90;;;;;;5020361;28;20036;-85
2022/07/11 01:52:29;;;;;;;1.42;0.40;;;13.40;99.90;;;;;;5053493;28;20131;-85
2022/07/11 01:54:55;;;;;;;0.38;0.38;;;13.40;99.90;;;;;;5037624;28;20123;-85
2022/07/11 01:57:21;;;;;;;0.22;0.22;;;13.40;99.90;;;;;;5037208;28;20407;-85
2022/07/11 01:59:47;;;;;;;1.45;0.20;;;13.40;99.90;;;;;;5053776;28;20082;-85
2022/07/11 02:02:13;;;;;;;0.63;0.30;;;13.40;99.90;;;;;;5037154;28;20028;-85
2022/07/11 02:04:40;;;;;;;1.38;0.32;;;13.40;99.90;;;;;;5017679;28;20036;-85
2022/07/11 02:07:06;;;;;;;0.32;0.30;;;13.40;99.90;;;;;;5046342;28;20483;-85
2022/07/11 02:09:31;;;;;;;0.20;0.20;;;13.40;99.90;;;;;;5017867;28;20047;-85
2022/07/11 02:12:00;;;;;;;0.43;0.30;;;13.40;99.90;;;;;;5036556;28;20052;-86
2022/07/11 02:14:26;;;;;;;1.30;0.40;;;13.40;99.90;;;;;;5035523;28;20041;-85
2022/07/11 02:16:51;;;;;;;0.47;0.30;;;13.40;99.90;;;;;;5021338;28;20082;-86
2022/07/11 02:19:17;;;;;;;0.30;0.30;;;13.40;99.90;;;;;;5049023;28;20041;-86
2022/07/11 02:21:43;;;;;;;0.28;0.22;;;13.40;99.90;;;;;;5043707;28;20052;-85
2022/07/11 02:24:09;;;;;;;1.20;0.40;;;13.40;99.90;;;;;;5036986;28;20040;-85
2022/07/11 02:26:35;;;;;;;1.10;0.38;;;13.40;99.90;;;;;;5005413;28;20059;-85
2022/07/11 02:29:01;;;;;;;0.20;0.20;;;13.40;99.90;;;;;;5049503;28;20044;-85
2022/07/11 02:31:27;;;;;;;0.45;0.35;;;13.30;99.90;;;;;;5049855;28;20476;-85
2022/07/11 02:33:53;;;;;;;1.55;0.40;;;13.30;99.90;;;;;;5050051;28;20029;-85
2022/07/11 02:36:19;;;;;;;0.28;0.28;;;13.40;99.90;;;;;;5050058;28;20574;-85
2022/07/11 02:38:44;;;;;;;1.55;0.30;;;13.40;99.90;;;;;;5018189;28;20099;-84
2022/07/11 02:41:10;;;;;;;0.22;0.22;;;13.40;99.90;;;;;;5029930;28;20065;-83
2022/07/11 02:43:36;;;;;;;0.20;0.20;;;13.40;99.90;;;;;;5039751;28;20043;-86
2022/07/11 02:46:02;;;;;;;0.32;0.30;;;13.40;99.90;;;;;;5050756;28;20128;-85
2022/07/11 02:48:28;;;;;;;0.80;0.20;;;13.30;99.90;;;;;;5020759;28;20406;-83
2022/07/11 02:50:54;;;;;;;0.20;0.20;;;13.30;99.90;;;;;;5024379;28;20037;-82
2022/07/11 02:53:19;;;;;;;0.80;0.25;;;13.20;99.90;;;;;;5037710;28;20045;-87
2022/07/11 02:55:45;;;;;;;0.20;0.20;;;13.20;99.90;;;;;;5040130;28;20032;-84
2022/07/11 02:58:11;;;;;;;1.80;0.25;;;13.20;99.90;;;;;;5023775;28;20625;-85
2022/07/11 03:00:37;;;;;;;1.13;0.10;;;13.20;99.90;;;;;;5023362;28;20384;-83
2022/07/11 03:03:09;;;;;;;0.90;0.20;;;13.20;99.90;;;;;;5026480;28;20058;-83
2022/07/11 03:05:35;;;;;;;0.38;0.38;;;13.20;99.90;;;;;;5056404;28;20093;-83
2022/07/11 03:08:01;;;;;;;0.57;0.30;;;13.20;99.90;;;;;;5039799;28;20056;-84
2022/07/11 03:10:27;;;;;;;0.30;0.30;;;13.20;99.90;;;;;;5046705;28;20036;-87
2022/07/11 03:12:52;;;;;;;0.30;0.30;;;13.20;99.90;;;;;;5023883;28;20451;-85
2022/07/11 03:15:18;;;;;;;1.00;0.30;;;13.10;99.90;;;;;;5024084;28;20513;-87
2022/07/11 03:17:44;;;;;;;1.10;0.30;;;13.10;99.90;;;;;;5056932;28;20131;-86
2022/07/11 03:20:10;;;;;;;0.43;0.30;;;13.20;99.90;;;;;;5003466;28;20041;-85
2022/07/11 03:22:36;;;;;;;1.00;0.30;;;13.20;99.90;;;;;;5036563;28;20095;-84
2022/07/11 03:25:06;;;;;;;0.30;0.30;;;13.20;99.90;;;;;;5004083;28;20047;-85
2022/07/11 03:27:35;;;;;;;1.27;0.30;;;13.20;99.90;;;;;;5025995;28;20037;-86
2022/07/11 03:30:01;;;;;;;1.33;0.30;;;13.20;99.90;;;;;;5049735;28;20032;-85
2022/07/11 03:32:27;;;;;;;0.57;0.38;;;13.20;99.90;;;;;;5024506;28;20144;-83
2022/07/11 03:37:37;;;;;;;0.22;0.22;;;13.20;99.90;;;;;;5038591;28;20044;-86
2022/07/11 03:40:03;;;;;;;0.30;0.30;;;13.10;99.90;;;;;;5057500;28;20482;-85
2022/07/11 03:42:29;;;;;;;0.45;0.25;;;13.10;99.90;;;;;;5058316;28;20028;-84
2022/07/11 03:44:55;;;;;;;0.20;0.20;;;13.20;99.90;;;;;;5009544;28;20078;-86
2022/07/11 03:47:20;;;;;;;0.32;0.32;;;13.20;99.90;;;;;;5018450;28;20036;-84
2022/07/11 03:49:47;;;;;;;0.25;0.20;;;13.20;99.90;;;;;;5019141;28;20040;-84
2022/07/11 03:52:13;;;;;;;0.28;0.28;;;13.20;99.90;;;;;;5053493;28;20036;-83
2022/07/11 03:54:39;;;;;;;0.60;0.22;;;13.20;99.90;;;;;;5022041;28;20384;-83
2022/07/11 03:57:06;;;;;;;0.60;0.30;;;13.30;99.90;;;;;;5033171;28;20045;-84
2022/07/11 03:59:32;;;;;;;1.17;0.40;;;13.30;99.90;;;;;;5042329;28;20048;-84
2022/07/11 04:01:58;;;;;;;3.03;0.32;;;13.30;99.90;;;;;;5037011;28;20033;-85
2022/07/11 04:04:23;;;;;;;0.50;0.30;;;13.30;99.90;;;;;;5018947;28;20044;-86
2022/07/11 04:06:49;;;;;;;0.20;0.20;;;13.30;99.90;;;;;;5044008;28;20044;-85
2022/07/11 04:09:15;;;;;;;0.20;0.20;;;13.30;99.90;;;;;;5041562;28;20033;-83
2022/07/11 04:11:41;;;;;;;1.38;0.22;;;13.30;99.90;;;;;;5056341;28;20052;-84
2022/07/11 04:14:07;;;;;;;0.40;0.30;;;13.30;99.90;;;;;;5020241;28;20044;-84
2022/07/11 04:16:32;;;;;;;0.30;0.30;;;13.40;99.90;;;;;;5051383;28;20457;-84
2022/07/11 04:18:58;;;;;;;1.60;0.40;;;13.40;99.90;;;;;;5039808;28;20132;-84
2022/07/11 04:21:24;;;;;;;0.22;0.20;;;13.50;99.90;;;;;;5056299;28;20052;-84
2022/07/11 04:23:50;;;;;;;0.60;0.30;;;13.50;99.90;;;;;;5022969;28;20055;-84
2022/07/11 04:26:16;;;;;;;1.95;0.30;;;13.50;99.90;;;;;;5037105;28;20059;-86
2022/07/11 04:28:42;;;;;;;0.70;0.30;;;13.50;99.90;;;;;;5038162;28;20525;-86
2022/07/11 04:31:07;;;;;;;1.75;0.40;;;13.60;99.90;;;;;;5054501;28;20041;-85
2022/07/11 04:33:33;;;;;;;0.30;0.30;;;13.60;99.90;;;;;;5054934;28;20039;-86
2022/07/11 04:35:59;;;;;;;0.30;0.30;;;13.60;99.90;;;;;;5024686;28;20040;-83
2022/07/11 04:38:25;;;;;;;1.02;0.20;;;13.60;99.90;;;;;;5022155;28;20055;-84
2022/07/11 04:40:51;;;;;;;1.05;0.30;;;13.60;99.90;;;;;;5022740;28;20415;-84
2022/07/11 04:43:17;;;;;;;0.57;0.35;;;13.70;99.90;;;;;;5024937;28;20029;-84
2022/07/11 04:45:43;;;;;;;0.30;0.30;;;13.70;99.90;;;;;;5041756;28;20110;-84
2022/07/11 04:48:09;;;;;;;1.50;0.50;;;13.70;99.90;;;;;;5054609;28;20021;-84
2022/07/11 04:50:35;;;;;;;0.47;0.30;;;13.80;99.90;;;;;;5051571;28;20059;-84
2022/07/11 04:53:02;;;;;;;1.02;0.50;;;13.80;99.90;;;;;;5035706;28;20033;-84
2022/07/11 04:55:28;;;;;;;0.28;0.28;;;13.80;99.90;;;;;;5038378;28;21707;-86
2022/07/11 04:57:53;;;;;;;0.57;0.40;;;13.80;99.90;;;;;;5037944;28;20105;-86
2022/07/11 05:00:19;;;;;;;0.20;0.20;;;13.90;99.90;;;;;;5037275;28;20166;-86
2022/07/11 05:02:45;;;;;;;0.52;0.30;;;13.90;99.90;;;;;;5037816;28;20431;-86
2022/07/11 05:05:11;;;;;;;0.30;0.30;;;13.90;99.90;;;;;;5052384;28;20052;-85
2022/07/11 05:07:37;;;;;;;0.47;0.20;;;14.00;99.90;;;;;;5021453;28;20041;-86
2022/07/11 05:10:04;;;;;;;0.22;0.22;;;14.10;99.90;;;;;;5025442;28;20041;-85
2022/07/11 05:12:30;;;;;;;0.30;0.30;;;14.20;99.90;;;;;;5034302;28;20052;-86
2022/07/11 05:14:58;;;;;;;0.47;0.30;;;14.20;99.90;;;;;;5038051;28;20100;-86
2022/07/11 05:17:25;;;;;;;0.40;0.40;;;14.30;99.90;;;;;;5021618;28;20055;-85
2022/07/11 05:19:51;;;;;;;0.82;0.30;;;14.40;99.90;;;;;;5001152;28;20124;-85
2022/07/11 05:22:17;;;;;;;0.98;0.40;;;14.40;99.90;;;;;;5034938;28;20754;-84
2022/07/11 05:24:43;;;;;;;0.32;0.30;;;14.40;99.90;;;;;;5021640;28;20533;-85
2022/07/11 05:27:08;;;;;;;0.30;0.30;;;14.50;99.90;;;;;;5037478;28;20384;-85
2022/07/11 05:29:34;;;;;;;0.82;0.30;;;14.50;99.90;;;;;;5069603;28;20129;-85
2022/07/11 05:32:00;;;;;;;1.45;0.30;;;14.60;99.90;;;;;;5053392;28;20479;-86
2022/07/11 05:34:26;;;;;;;0.85;0.50;;;14.70;99.90;;;;;;5021552;28;20047;-86
2022/07/11 05:36:52;;;;;;;1.05;0.30;;;14.90;99.90;;;;;;5004812;28;20054;-86
2022/07/11 05:39:18;;;;;;;1.02;0.30;;;15.00;99.90;;;;;;5025119;28;20064;-86
2022/07/11 05:41:44;;;;;;;0.30;0.30;;;15.00;99.90;;;;;;5007499;28;19948;-85
2022/07/11 05:44:10;;;;;;;0.63;0.40;;;15.10;99.90;;;;;;5041973;28;20074;-85
2022/07/11 05:46:39;;;;;;;0.70;0.22;;;15.10;99.90;;;;;;5037930;28;20040;-86
2022/07/11 05:49:08;;;;;;;0.40;0.30;;;15.10;99.90;;;;;;5037053;28;20223;-85
2022/07/11 05:51:36;;;;;;;1.23;0.30;;;15.10;99.90;;;;;;5044425;28;20037;-85
2022/07/11 05:54:02;;;;;;;4.35;0.60;;;15.10;99.90;;;;;;5042319;28;20051;-86
2022/07/11 05:56:28;;;;;;;0.30;0.30;;;15.10;99.90;;;;;;5037188;28;20032;-85
2022/07/11 05:58:54;;;;;;;0.13;0.13;;;15.00;99.90;;;;;;5036734;28;20029;-85
2022/07/11 06:01:21;;;;;;;0.28;0.28;;;15.00;99.90;;;;;;5022052;28;20040;-85
2022/07/11 06:03:47;;;;;;;0.30;0.30;;;15.00;99.90;;;;;;5037660;28;20099;-85
2022/07/11 06:06:12;;;;;;;0.63;0.30;;;15.00;99.90;;;;;;5037300;28;20040;-86
2022/07/11 06:08:41;;;;;;;0.57;0.30;;;14.90;99.90;;;;;;5020558;28;20396;-85
2022/07/11 06:11:15;;;;;;;0.20;0.20;;;14.90;99.90;;;;;;5038487;28;20047;-86
2022/07/11 06:13:44;;;;;;;0.70;0.30;;;14.90;99.90;;;;;;5037146;28;20040;-86
2022/07/11 06:16:11;;;;;;;0.45;0.30;;;14.90;99.90;;;;;;5034991;28;20518;-86
2022/07/11 06:18:38;;;;;;;1.50;0.95;;;14.90;99.90;;;;;;5039743;28;20487;-86
2022/07/11 06:21:05;;;;;;;0.22;0.22;;;15.00;99.90;;;;;;5021203;28;20487;-86
2022/07/11 06:23:31;;;;;;;0.47;0.47;;;15.10;99.90;;;;;;5054597;28;20040;-86
2022/07/11 06:25:57;;;;;;;0.55;0.38;;;15.10;99.90;;;;;;5038219;28;20483;-85
2022/07/11 06:28:23;;;;;;;0.22;0.22;;;15.20;99.90;;;;;;5021119;28;20036;-86
2022/07/11 06:30:49;;;;;;;0.75;0.30;;;15.30;99.90;;;;;;5037404;28;20119;-87
2022/07/11 06:33:16;;;;;;;1.88;0.40;;;15.30;99.90;;;;;;5032546;28;20037;-85
2022/07/11 06:35:44;;;;;;;0.40;0.20;;;15.10;99.90;;;;;;5045493;28;20056;-85
2022/07/11 06:38:10;;;;;;;0.93;0.50;;;15.10;99.90;;;;;;5039699;28;20033;-85
2022/07/11 06:40:36;;;;;;;0.52;0.30;;;15.10;99.90;;;;;;5020291;28;20115;-84
2022/07/11 06:43:02;;;;;;;0.30;0.30;;;15.10;99.90;;;;;;5034025;28;20124;-85
2022/07/11 06:45:29;;;;;;;0.20;0.20;;;15.10;99.90;;;;;;5041053;28;20115;-85
2022/07/11 06:47:55;;;;;;;0.30;0.30;;;15.10;99.90;;;;;;5057990;28;20108;-85
2022/07/11 06:50:21;;;;;;;0.35;0.35;;;15.10;99.90;;;;;;5051127;28;20558;-85
2022/07/11 06:52:47;;;;;;;0.30;0.30;;;15.10;99.90;;;;;;5035997;28;20429;-86
2022/07/11 06:55:14;;;;;;;0.40;0.40;;;15.20;99.90;;;;;;5020045;28;20040;-85
2022/07/11 06:57:39;;;;;;;0.20;0.20;;;15.30;99.90;;;;;;5052474;28;20573;-87
2022/07/11 07:00:07;;;;;;;0.82;0.30;;;15.40;99.90;;;;;;5035259;28;20037;-88
2022/07/11 07:02:33;;;;;;;0.90;0.30;;;15.40;99.90;;;;;;5036897;28;20021;-86
2022/07/11 07:05:00;;;;;;;0.22;0.20;;;15.40;99.90;;;;;;5010022;28;20440;-85
2022/07/11 07:07:26;;;;;;;0.20;0.20;;;15.50;99.90;;;;;;5028633;28;20571;-86
2022/07/11 07:09:53;;;;;;;0.20;0.20;;;15.60;99.90;;;;;;5047071;28;20036;-86
2022/07/11 07:12:20;;;;;;;0.55;0.20;;;15.70;99.90;;;;;;5032795;28;20196;-86
2022/07/11 07:14:46;;;;;;;0.20;0.20;;;15.60;99.90;;;;;;5049202;28;20028;-87
2022/07/11 07:17:15;;;;;;;0.17;0.15;;;15.50;99.90;;;;;;5035025;28;20032;-87
2022/07/11 07:19:40;;;;;;;0.40;0.20;;;15.50;99.90;;;;;;5032586;28;20025;-86
2022/07/11 07:22:08;;;;;;;0.30;0.30;;;15.60;99.90;;;;;;5036437;28;20044;-86
2022/07/11 07:24:36;;;;;;;0.13;0.13;;;15.70;99.90;;;;;;5028003;28;20021;-86
2022/07/11 07:27:03;;;;;;;0.10;0.10;;;15.90;99.90;;;;;;5028820;28;20027;-87
2022/07/11 07:29:28;;;;;;;0.20;0.20;;;16.00;99.90;;;;;;5052227;28;20090;-88
2022/07/11 07:31:54;;;;;;;0.40;0.20;;;16.20;99.90;;;;;;5011262;28;20032;-88
2022/07/11 07:34:21;;;;;;;0.28;0.20;;;16.20;99.90;;;;;;5034406;28;20025;-86
2022/07/11 07:36:46;;;;;;;0.47;0.30;;;16.20;99.90;;;;;;5046821;28;20039;-86
2022/07/11 07:39:12;;;;;;;1.27;0.20;;;16.20;99.90;;;;;;5020535;28;20108;-87
2022/07/11 07:41:38;;;;;;;0.30;0.30;;;16.30;99.90;;;;;;5050087;28;20082;-87
2022/07/11 07:44:04;;;;;;;0.20;0.10;;;16.40;99.90;;;;;;5032836;28;20083;-87
2022/07/11 07:46:30;;;;;;;0.17;0.17;;;16.40;99.90;;;;;;5050290;28;20165;-87
2022/07/11 07:48:56;;;;;;;0.77;0.20;;;16.40;99.90;;;;;;5049031;28;20033;-87
2022/07/11 07:51:22;;;;;;;0.20;0.20;;;16.40;99.90;;;;;;5051768;28;20029;-88
2022/07/11 07:53:49;;;;;;;0.40;0.20;;;16.50;99.90;;;;;;5032431;28;20051;-86
2022/07/11 07:56:15;;;;;;;0.50;0.50;;;16.60;99.90;;;;;;5032001;28;20040;-85
2022/07/11 07:58:40;;;;;;;0.45;0.38;;;16.60;99.90;;;;;;5031735;28;20036;-87
2022/07/11 08:03:52;;;;;;;0.20;0.20;;;16.70;99.90;;;;;;5038655;28;20044;-87
2022/07/11 08:06:19;;;;;;;0.20;0.20;;;16.80;99.90;;;;;;5023487;28;20025;-85
2022/07/11 08:08:45;;;;;;;0.20;0.20;;;16.90;99.90;;;;;;5011521;28;20033;-87
2022/07/11 08:11:11;;;;;;;0.28;0.10;;;16.90;99.90;;;;;;5024289;28;20037;-86
2022/07/11 08:13:37;;;;;;;0.10;0.10;;;17.00;99.90;;;;;;5030955;28;20039;-86
2022/07/11 08:16:06;;;;;;;0.10;0.10;;;17.20;99.90;;;;;;5018624;28;20036;-86
2022/07/11 08:18:33;;;;;;;0.40;0.20;;;17.30;99.90;;;;;;5050027;28;20045;-88
2022/07/11 08:20:59;;;;;;;0.10;0.10;;;17.40;99.90;;;;;;5037233;28;20032;-86
2022/07/11 08:23:25;;;;;;;0.30;0.20;;;17.60;99.90;;;;;;5028642;28;20039;-86
2022/07/11 08:25:51;;;;;;;0.10;0.10;;;17.80;99.90;;;;;;5051686;28;20032;-85
2022/07/11 08:28:17;;;;;;;0.20;0.20;;;17.90;99.90;;;;;;5050932;28;20040;-87
2022/07/11 08:30:43;;;;;;;0.28;0.17;;;17.90;99.90;;;;;;5045095;28;20068;-87
2022/07/11 08:33:09;;;;;;;0.20;0.20;;;18.00;99.90;;;;;;5020877;28;20517;-87
2022/07/11 08:35:35;;;;;;;0.08;0.08;;;18.00;99.90;;;;;;5045768;28;20498;-89
2022/07/11 08:38:01;;;;;;;0.22;0.20;;;18.10;99.90;;;;;;5030950;28;20059;-87
2022/07/11 08:40:27;;;;;;;0.10;0.10;;;18.30;99.90;;;;;;5024418;28;20040;-86
2022/07/11 08:42:55;;;;;;;0.68;0.17;;;18.50;99.90;;;;;;5018995;28;20033;-86
2022/07/11 08:45:27;;;;;;;0.20;0.20;;;18.60;99.90;;;;;;5035213;28;20033;-86
2022/07/11 08:47:54;;;;;;;1.45;0.28;;;18.70;99.90;;;;;;5035791;28;20553;-83
2022/07/11 08:50:21;;;;;;;0.28;0.20;;;18.70;99.90;;;;;;5036316;28;20029;-84
2022/07/11 08:52:47;;;;;;;0.08;0.05;;;18.60;99.90;;;;;;5037407;28;20039;-83
2022/07/11 08:55:13;;;;;;;0.10;0.10;;;18.60;99.90;;;;;;5001516;28;20029;-84
2022/07/11 08:57:38;;;;;;;0.17;0.10;;;18.50;99.90;;;;;;5053147;28;20076;-84
2022/07/11 09:00:08;;;;;;;0.13;0.13;;;18.40;99.90;;;;;;5037005;28;20121;-86
2022/07/11 09:02:36;;;;;;;0.20;0.20;;;18.30;99.90;;;;;;5052512;28;20085;-84
2022/07/11 09:05:05;;;;;;;0.55;0.10;;;18.20;99.90;;;;;;5053095;28;20086;-85
2022/07/11 10:23:38;;;;;;;0.10;0.10;;;19.50;99.90;;;;;;5069485;28;20297;-85
2022/07/11 10:26:13;;;;;;;0.32;0.20;;;19.50;99.90;;;;;;5045126;28;20020;-87
2022/07/11 10:28:48;;;;;;;0.55;0.30;;;19.60;99.90;;;;;;5070259;28;20037;-87
2022/07/11 10:31:21;;;;;;;1.20;0.10;;;19.70;99.90;;;;;;5074755;28;20036;-86
2022/07/11 10:34:07;;;;;;;1.02;0.25;;;19.70;99.90;;;;;;5052052;28;20028;-85
2022/07/11 10:36:40;;;;;;;0.70;0.10;;;19.70;99.90;;;;;;5027607;28;20222;-85
2022/07/11 10:39:21;;;;;;;0.25;0.10;;;19.70;99.90;;;;;;5040508;28;20112;-86
2022/07/11 10:41:47;;;;;;;1.27;0.20;;;19.60;99.50;;;;;;5034233;28;20025;-85
2022/07/11 10:44:14;;;;;;;0.00;0.00;;;19.50;99.90;;;;;;5020256;28;20116;-87
2022/07/11 10:46:39;;;;;;;0.75;0.22;;;19.60;99.90;;;;;;5015586;28;20654;-84
2022/07/11 10:49:20;;;;;;;0.35;0.35;;;19.60;99.90;;;;;;5029692;28;20037;-86
2022/07/11 10:52:06;;;;;;;0.20;0.20;;;19.80;99.90;;;;;;5040802;28;20106;-85
2022/07/11 10:55:09;;;;;;;0.30;0.20;;;19.80;99.90;;;;;;5017812;28;20199;-84
2022/07/11 10:57:45;;;;;;;0.30;0.13;;;19.80;98.20;;;;;;5048731;28;20025;-87
2022/07/11 11:00:15;;;;;;;0.10;0.10;;;19.70;97.00;;;;;;5014746;28;20032;-85
2022/07/11 11:03:04;;;;;;;0.17;0.17;;;19.60;98.10;;;;;;5069389;28;20102;-87
2022/07/11 11:06:03;;;;;;;0.38;0.22;;;19.50;97.40;;;;;;5073391;28;20027;-85
2022/07/11 11:08:38;;;;;;;0.63;0.20;;;19.40;99.90;;;;;;5001093;28;20045;-86
2022/07/11 11:11:19;;;;;;;0.22;0.20;;;19.40;99.90;;;;;;5026206;28;20025;-87
2022/07/11 11:13:46;;;;;;;0.20;0.20;;;19.70;99.60;;;;;;5064188;28;20115;-87
2022/07/11 11:16:22;;;;;;;0.22;0.22;;;19.80;99.00;;;;;;5058811;28;20024;-85
2022/07/11 11:18:48;;;;;;;0.30;0.20;;;20.10;99.90;;;;;;5030622;28;20040;-85
2022/07/11 11:21:16;;;;;;;0.30;0.20;;;20.20;95.10;;;;;;5054334;28;20111;-86
2022/07/11 11:23:44;;;;;;;0.10;0.10;;;20.00;95.30;;;;;;5042283;28;20028;-85
2022/07/11 11:26:20;;;;;;;0.13;0.13;;;20.10;96.10;;;;;;5043866;28;20028;-85
2022/07/11 11:28:57;;;;;;;0.17;0.17;;;20.30;97.90;;;;;;5040110;28;20050;-87
2022/07/11 11:31:24;;;;;;;0.10;0.10;;;20.70;98.70;;;;;;5016544;28;20640;-86
2022/07/11 11:33:50;;;;;;;0.10;0.10;;;20.90;98.70;;;;;;5058984;28;20553;-86
2022/07/11 11:36:18;;;;;;;1.95;0.10;;;21.10;98.40;;;;;;5057749;28;20025;-84
2022/07/11 11:38:46;;;;;;;0.43;0.20;;;21.30;98.80;;;;;;5038541;28;20395;-85
2022/07/11 11:41:14;;;;;;;0.13;0.13;;;21.40;96.60;;;;;;5058482;28;20037;-86
2022/07/11 11:43:46;;;;;;;0.20;0.20;;;21.50;95.60;;;;;;5063097;28;20090;-85
2022/07/11 11:46:13;;;;;;;0.20;0.20;;;21.50;92.90;;;;;;5068957;28;20020;-86
2022/07/11 11:48:47;;;;;;;0.10;0.10;;;21.50;91.70;;;;;;5069358;28;20119;-86
2022/07/11 11:51:15;;;;;;;0.20;0.20;;;21.50;92.40;;;;;;5048626;28;20025;-86
2022/07/11 11:53:45;;;;;;;0.20;0.20;;;21.50;92.60;;;;;;5034569;28;20447;-85
2022/07/11 11:56:34;;;;;;;0.80;0.35;;;21.60;96.40;;;;;;5057149;28;20066;-87
2022/07/11 11:59:03;;;;;;;0.60;0.30;;;21.80;96.30;;;;;;5034738;28;20028;-87
2022/07/11 12:01:34;;;;;;;0.13;0.13;;;22.10;95.90;;;;;;5054798;28;20032;-87
2022/07/11 12:04:05;;;;;;;0.20;0.20;;;22.40;94.80;;;;;;5053952;28;20059;-86
2022/07/11 12:06:43;;;;;;;0.05;0.05;;;22.60;93.20;;;;;;5052550;28;20132;-88
2022/07/11 12:09:18;;;;;;;0.45;0.20;;;22.80;93.40;;;;;;5041882;28;20035;-86
2022/07/11 12:11:46;;;;;;;0.40;0.20;;;23.00;92.20;;;;;;5033522;28;20052;-87
2022/07/11 12:14:14;;;;;;;0.43;0.30;;;23.10;89.60;;;;;;5067683;28;20029;-87
2022/07/11 12:16:48;;;;;;;1.35;0.10;;;23.10;91.70;;;;;;5053626;28;20039;-87
2022/07/11 12:19:22;;;;;;;0.20;0.20;;;23.10;90.90;;;;;;5036073;28;20032;-87
2022/07/11 12:21:53;;;;;;;0.05;0.05;;;23.20;92.60;;;;;;5056984;28;20032;-87
2022/07/11 12:24:26;;;;;;;0.30;0.30;;;23.30;88.70;;;;;;5035073;28;20032;-88
2022/07/11 12:26:52;;;;;;;0.10;0.10;;;23.40;86.30;;;;;;5032279;28;20083;-87
2022/07/11 12:29:22;;;;;;;0.10;0.10;;;23.40;85.60;;;;;;5039486;28;20029;-86
2022/07/11 12:31:49;;;;;;;0.20;0.20;;;23.40;86.60;;;;;;5069820;28;20082;-87
2022/07/11 12:34:20;;;;;;;0.10;0.10;;;23.40;83.60;;;;;;5071666;28;20035;-85
2022/07/11 12:36:47;;;;;;;0.10;0.10;;;23.40;83.00;;;;;;5046202;28;20116;-88
2022/07/11 12:39:25;;;;;;;0.10;0.10;;;23.50;83.60;;;;;;5072993;28;20098;-85
2022/07/11 12:41:52;;;;;;;0.10;0.10;;;23.40;82.70;;;;;;5039947;28;20055;-86
2022/07/11 12:47:12;;;;;;;0.10;0.10;;;23.70;90.20;;;;;;5057425;28;20116;-85
2022/07/11 12:49:40;;;;;;;1.95;0.10;;;24.30;90.10;;;;;;5059580;28;20045;-85
2022/07/11 12:52:06;;;;;;;0.10;0.10;;;24.60;84.30;;;;;;5059048;28;20035;-84
2022/07/11 12:54:33;;;;;;;1.25;0.22;;;24.90;79.10;;;;;;5061045;28;20078;-86
2022/07/11 12:57:03;;;;;;;0.47;0.10;;;25.00;79.10;;;;;;5046826;28;20075;-85
2022/07/11 12:59:33;;;;;;;0.28;0.20;;;24.90;77.00;;;;;;5046221;28;20078;-86
2022/07/11 13:02:04;;;;;;;0.05;0.05;;;24.70;77.70;;;;;;5042057;28;20443;-86
2022/07/11 13:04:34;;;;;;;0.40;0.10;;;24.50;77.20;;;;;;5021537;28;20029;-87
2022/07/11 13:10:05;;;;;;;0.20;0.17;;;24.00;78.00;;;;;;5060207;28;20032;-84
2022/07/11 13:12:31;;;;;;;0.10;0.10;;;23.80;82.60;;;;;;5024060;28;20386;-85
2022/07/11 13:15:15;;;;;;;0.10;0.10;;;23.60;86.90;;;;;;5019422;28;20033;-88
2022/07/11 13:17:44;;;;;;;0.10;0.10;;;23.50;87.00;;;;;;5052586;28;20025;-88
2022/07/11 13:20:15;;;;;;;0.20;0.20;;;23.20;88.00;;;;;;5073822;28;20025;-85
2022/07/11 13:22:45;;;;;;;0.10;0.10;;;23.10;87.50;;;;;;5047125;28;20048;-86
2022/07/11 13:25:13;;;;;;;0.20;0.10;;;23.00;89.20;;;;;;5022165;28;20123;-86
2022/07/11 13:27:43;;;;;;;0.08;0.08;;;22.80;88.70;;;;;;5055757;28;20024;-86
2022/07/11 13:30:17;;;;;;;0.10;0.10;;;22.80;89.00;;;;;;5051170;28;20048;-84
2022/07/11 13:32:47;;;;;;;0.08;0.08;;;22.70;88.00;;;;;;5037215;28;20090;-85
2022/07/11 13:35:14;;;;;;;0.10;0.10;;;22.60;88.20;;;;;;5039578;28;20575;-86
2022/07/11 13:37:42;;;;;;;0.10;0.10;;;22.50;90.00;;;;;;5054889;28;20066;-86
2022/07/11 13:40:16;;;;;;;0.05;0.05;;;22.50;88.10;;;;;;5046148;28;20119;-87
2022/07/11 13:42:48;;;;;;;0.15;0.10;;;22.50;90.60;;;;;;5053216;28;20028;-86
2022/07/11 13:45:15;;;;;;;0.10;0.10;;;22.60;90.90;;;;;;5037593;28;20024;-86
2022/07/11 13:47:42;;;;;;;0.17;0.10;;;23.00;90.80;;;;;;5051747;28;20028;-86
2022/07/11 13:50:08;;;;;;;0.10;0.10;;;23.40;90.20;;;;;;5034642;28;20033;-86
2022/07/11 13:52:37;;;;;;;0.32;0.08;;;23.80;88.20;;;;;;5005949;28;20031;-86
2022/07/11 13:55:04;;;;;;;0.10;0.10;;;24.00;82.70;;;;;;5030148;28;20061;-86
2022/07/11 13:57:30;;;;;;;0.20;0.20;;;24.00;83.10;;;;;;5033633;28;20025;-86
2022/07/11 13:59:58;;;;;;;0.10;0.10;;;23.70;84.00;;;;;;5054820;28;20033;-87
2022/07/11 14:02:24;;;;;;;0.25;0.10;;;23.50;88.30;;;;;;5034222;28;20116;-87
2022/07/11 14:04:50;;;;;;;0.10;0.10;;;23.40;88.10;;;;;;5044002;28;20487;-86
2022/07/11 14:07:16;;;;;;;0.77;0.17;;;23.10;80.10;;;;;;5069898;28;20083;-85
2022/07/11 14:09:43;;;;;;;0.10;0.10;;;23.00;88.50;;;;;;5036560;28;20502;-85
2022/07/11 14:12:09;;;;;;;0.08;0.08;;;22.70;87.90;;;;;;5051626;28;20025;-85
2022/07/11 14:14:35;;;;;;;1.98;0.10;;;22.60;89.60;;;;;;5060203;28;20028;-85
2022/07/11 14:17:02;;;;;;;0.10;0.10;;;22.50;89.20;;;;;;5047656;28;20063;-85
2022/07/11 14:19:28;;;;;;;0.40;0.10;;;22.50;90.60;;;;;;5053221;28;20025;-84